createdAt,value
2017-07-26T00:07:48.000Z,55.145
2017-07-26T00:17:48.000Z,55.121
2017-07-26T00:27:48.000Z,55.292
2017-07-26T00:37:50.000Z,55.305
2017-07-26T00:47:48.000Z,55.597
2017-07-26T01:07:48.000Z,55.605
2017-07-26T01:17:48.000Z,55.646
2017-07-26T01:27:48.000Z,55.493
2017-07-26T01:37:48.000Z,55.578
2017-07-26T01:47:48.000Z,55.589
2017-07-26T01:57:48.000Z,55.512
2017-07-26T02:07:48.000Z,55.5
2017-07-26T02:17:48.000Z,55.564
2017-07-26T02:27:48.000Z,55.649
2017-07-26T02:37:48.000Z,55.561
2017-07-26T02:47:48.000Z,55.646
2017-07-26T02:57:48.000Z,55.656
2017-07-26T03:07:48.000Z,55.614
2017-07-26T03:17:48.000Z,55.645
2017-07-26T03:27:48.000Z,55.743
2017-07-26T03:37:48.000Z,55.699
2017-07-26T03:47:48.000Z,55.728
2017-07-26T03:57:48.000Z,55.598
2017-07-26T04:07:48.000Z,55.718
2017-07-26T04:17:48.000Z,55.792
2017-07-26T04:27:48.000Z,55.772
2017-07-26T04:37:48.000Z,55.509
2017-07-26T04:47:48.000Z,55.738
2017-07-26T04:57:48.000Z,55.683
2017-07-26T05:07:48.000Z,55.608
2017-07-26T05:17:48.000Z,55.757
2017-07-26T05:27:49.000Z,55.735
2017-07-26T05:37:49.000Z,55.748
2017-07-26T05:47:49.000Z,55.66
2017-07-26T05:57:49.000Z,55.503
2017-07-26T06:07:49.000Z,55.269
2017-07-26T06:17:49.000Z,55.134
2017-07-26T06:27:49.000Z,55.041
2017-07-26T06:37:49.000Z,55.122
2017-07-26T06:47:49.000Z,55.014
2017-07-26T06:57:49.000Z,55.016
2017-07-26T07:07:49.000Z,54.826
2017-07-26T07:17:49.000Z,54.821
2017-07-26T07:27:49.000Z,54.858
2017-07-26T07:37:49.000Z,54.599
2017-07-26T07:47:49.000Z,54.36
2017-07-26T07:57:49.000Z,53.892
2017-07-26T08:07:49.000Z,53.808
2017-07-26T08:17:49.000Z,53.008
2017-07-26T08:27:49.000Z,52.508
2017-07-26T08:37:49.000Z,52.274
2017-07-26T08:47:49.000Z,51.93
2017-07-26T08:57:49.000Z,51.741
2017-07-26T09:07:49.000Z,51.809
2017-07-26T09:17:49.000Z,51.18
2017-07-26T09:27:49.000Z,51.172
2017-07-26T09:37:49.000Z,50.468
2017-07-26T09:47:49.000Z,51.058
2017-07-26T09:57:49.000Z,50.182
2017-07-26T10:07:49.000Z,50.047
2017-07-26T10:17:49.000Z,50.678
2017-07-26T10:27:49.000Z,49.596
2017-07-26T10:37:49.000Z,49.345
2017-07-26T10:47:49.000Z,49.768
2017-07-26T10:57:49.000Z,50.093
2017-07-26T11:07:49.000Z,48.706
2017-07-26T11:17:49.000Z,48.236
2017-07-26T11:27:49.000Z,47.843
2017-07-26T11:37:49.000Z,47.302
2017-07-26T11:47:49.000Z,47.051
2017-07-26T11:57:49.000Z,46.845
2017-07-26T12:07:49.000Z,46.157
2017-07-26T12:17:49.000Z,45.95
2017-07-26T12:27:49.000Z,45.528
2017-07-26T12:37:49.000Z,45.639
2017-07-26T12:47:49.000Z,45.954
2017-07-26T12:57:49.000Z,45.348
2017-07-26T13:07:49.000Z,45.605
2017-07-26T13:17:49.000Z,45.207
2017-07-26T13:27:49.000Z,45.103
2017-07-26T13:37:49.000Z,44.18
2017-07-26T13:47:50.000Z,43.638
2017-07-26T13:57:49.000Z,43.364
2017-07-26T14:07:50.000Z,43.855
2017-07-26T14:17:50.000Z,43.776
2017-07-26T14:27:50.000Z,44.142
2017-07-26T14:37:50.000Z,43.898
2017-07-26T14:47:50.000Z,44.049
2017-07-26T14:57:50.000Z,43.685
2017-07-26T15:07:50.000Z,43.54
2017-07-26T15:17:50.000Z,43.475
2017-07-26T15:27:50.000Z,43.338
2017-07-26T15:37:50.000Z,43.318
2017-07-26T15:47:50.000Z,42.885
2017-07-26T15:57:50.000Z,42.7
2017-07-26T16:07:51.000Z,43.146
2017-07-26T16:17:50.000Z,43.189
2017-07-26T16:47:50.000Z,42.96
2017-07-26T16:57:50.000Z,43.312
2017-07-26T17:07:50.000Z,43.27
2017-07-26T17:17:54.000Z,43.546
2017-07-26T17:27:50.000Z,43.767
2017-07-26T17:37:50.000Z,43.965
2017-07-26T17:57:50.000Z,45.097
2017-07-26T18:07:50.000Z,44.974
2017-07-26T18:17:50.000Z,45.279
2017-07-26T18:27:50.000Z,45.412
2017-07-26T18:37:50.000Z,45.662
2017-07-26T18:47:50.000Z,45.981
2017-07-26T18:57:50.000Z,46.287
2017-07-26T19:07:50.000Z,46.341
2017-07-26T19:17:50.000Z,46.452
2017-07-26T19:37:50.000Z,46.783
2017-07-26T19:47:50.000Z,47.212
2017-07-26T19:57:51.000Z,47.508
2017-07-26T20:07:50.000Z,47.619
2017-07-26T20:17:50.000Z,47.871
2017-07-26T20:27:50.000Z,47.915
2017-07-26T20:37:50.000Z,48.068
2017-07-26T20:47:50.000Z,48.143
2017-07-26T20:57:50.000Z,48.346
2017-07-26T21:07:50.000Z,47.999
2017-07-26T21:17:50.000Z,48.316
2017-07-26T21:27:50.000Z,48.193
2017-07-26T21:37:50.000Z,48.285
2017-07-26T21:47:50.000Z,48.313
2017-07-26T21:57:52.000Z,48.297
2017-07-26T22:07:51.000Z,48.303
2017-07-26T22:17:51.000Z,48.253
2017-07-26T22:27:51.000Z,48.14
2017-07-26T22:37:51.000Z,47.931
2017-07-26T22:47:51.000Z,47.841
2017-07-26T22:57:51.000Z,47.913
2017-07-26T23:07:51.000Z,47.846
2017-07-26T23:17:51.000Z,47.833
2017-07-26T23:27:51.000Z,47.676
2017-07-26T23:37:51.000Z,47.652
2017-07-26T23:47:51.000Z,47.549
2017-07-26T23:57:51.000Z,47.438
